Time;durP1;ratioP1;P1;durP2;ratioP2;P2;SDS_P1;SDS_P2;PMS_P1;PMS_P2;Temp;Humidity;BMP_temperature;BMP_pressure;BME280_temperature;BME280_humidity;BME280_pressure;Samples;Min_cycle;Max_cycle;Signal;HPM_P1;HPM_P2
2022/09/04 00:02:21;;;;;;;19.80;16.05;;;;;;;15.67;79.78;101223.91;5093991;28;20123;-45
2022/09/04 00:05:04;;;;;;;20.05;17.17;;;;;;;15.63;80.00;101219.50;5094158;28;20023;-47
2022/09/04 00:07:38;;;;;;;23.15;16.30;;;;;;;15.55;80.80;101228.94;5093555;28;20148;-45
2022/09/04 00:10:31;;;;;;;17.88;15.20;;;;;;;15.53;80.11;101226.31;5093663;28;20103;-45
2022/09/04 00:13:07;;;;;;;19.83;16.63;;;;;;;15.34;82.39;101224.25;5093278;28;20444;-45
2022/09/04 00:15:38;;;;;;;18.88;17.02;;;;;;;15.14;82.90;101233.50;5093828;28;20044;-45
2022/09/04 00:18:29;;;;;;;25.23;17.23;;;;;;;15.09;82.31;101235.13;5093703;28;20028;-48
2022/09/04 00:21:06;;;;;;;20.17;17.13;;;;;;;14.82;84.19;101236.38;5092873;28;20422;-47
2022/09/04 00:23:41;;;;;;;22.85;18.48;;;;;;;14.85;84.34;101230.38;5093746;28;20036;-46
2022/09/04 00:26:09;;;;;;;25.02;18.02;;;;;;;14.87;84.83;101240.78;5093526;28;20027;-45
2022/09/04 00:28:41;;;;;;;25.20;18.90;;;;;;;14.92;85.79;101237.41;5093035;28;20059;-46
2022/09/04 00:31:27;;;;;;;25.27;19.92;;;;;;;14.95;85.37;101241.78;5093221;28;20024;-47
2022/09/04 00:34:26;;;;;;;22.42;18.77;;;;;;;15.01;84.70;101241.03;5092861;28;20028;-45
2022/09/04 00:36:57;;;;;;;21.27;18.63;;;;;;;14.98;85.58;101240.13;5092712;28;20024;-45
2022/09/04 00:39:44;;;;;;;22.45;17.73;;;;;;;14.94;84.98;101240.06;5093077;28;20016;-46
2022/09/04 00:42:34;;;;;;;19.73;17.50;;;;;;;14.91;84.56;101234.78;5092384;28;20048;-46
2022/09/04 00:45:14;;;;;;;20.75;18.58;;;;;;;14.85;85.28;101238.16;5093459;28;20085;-47
2022/09/04 00:47:39;;;;;;;24.73;17.90;;;;;;;14.69;85.96;101239.56;5092258;28;20479;-45
2022/09/04 00:50:05;;;;;;;22.47;19.30;;;;;;;14.64;86.19;101238.63;5093179;28;20119;-44
2022/09/04 00:52:56;;;;;;;20.38;18.27;;;;;;;14.53;86.33;101251.34;5093213;28;20047;-47
2022/09/04 00:55:36;;;;;;;20.10;17.92;;;;;;;14.51;86.27;101249.56;5092103;28;20475;-44
2022/09/04 00:58:32;;;;;;;21.33;18.30;;;;;;;14.46;85.68;101254.66;5092912;28;20028;-47
2022/09/04 01:00:58;;;;;;;22.02;19.23;;;;;;;14.31;86.52;101248.31;5093242;28;20032;-45
2022/09/04 01:03:51;;;;;;;26.73;21.08;;;;;;;14.42;87.25;101256.34;5092117;28;20023;-44
2022/09/04 01:06:35;;;;;;;24.30;20.83;;;;;;;14.26;87.86;101257.72;5092764;28;20028;-44
2022/09/04 01:09:23;;;;;;;23.60;20.98;;;;;;;14.26;87.84;101262.03;5092302;28;20032;-43
2022/09/04 01:12:05;;;;;;;27.15;21.55;;;;;;;14.18;89.36;101266.16;5093171;28;20038;-47
2022/09/04 01:14:40;;;;;;;25.10;21.63;;;;;;;14.19;89.20;101270.53;5092946;28;20070;-44
2022/09/04 01:17:32;;;;;;;25.42;22.73;;;;;;;14.15;89.66;101270.47;5091931;28;20463;-43
2022/09/04 01:20:23;;;;;;;26.33;21.83;;;;;;;14.28;89.63;101273.31;5093120;28;20058;-44
2022/09/04 01:23:17;;;;;;;22.65;20.25;;;;;;;14.22;88.75;101278.38;5092207;28;20217;-43
2022/09/04 01:25:51;;;;;;;23.73;20.05;;;;;;;14.14;88.58;101278.22;5093078;28;20032;-45
2022/09/04 01:28:29;;;;;;;23.40;19.48;;;;;;;14.05;88.05;101284.06;5092744;28;20028;-43
2022/09/04 01:31:04;;;;;;;;;;;;;;;14.22;84.58;101275.78;5092427;28;20036;-44
2022/09/04 01:33:41;;;;;;;24.42;20.38;;;;;;;14.12;89.63;101288.53;5092701;28;19918;-44
2022/09/04 01:36:26;;;;;;;25.50;21.38;;;;;;;13.97;89.96;101285.63;5092881;28;20052;-44
2022/09/04 01:38:57;;;;;;;25.60;22.15;;;;;;;13.82;90.85;101283.53;5092012;28;20047;-46
2022/09/04 01:41:49;;;;;;;23.98;20.77;;;;;;;13.73;90.65;101289.38;5092408;28;20502;-46
2022/09/04 01:44:14;;;;;;;27.15;22.25;;;;;;;13.66;90.42;101288.34;5091967;28;20028;-48
2022/09/04 01:47:20;;;;;;;27.65;23.15;;;;;;;13.65;91.21;101301.28;5093442;28;20108;-45
2022/09/04 01:50:03;;;;;;;25.43;22.83;;;;;;;13.65;91.30;101302.16;5096625;28;20111;-45
2022/09/04 01:52:50;;;;;;;24.65;21.90;;;;;;;13.66;91.42;101300.44;5095678;28;20103;-44
2022/09/04 01:55:18;;;;;;;26.40;23.60;;;;;;;13.50;92.25;101297.47;5096454;28;20103;-48
2022/09/04 01:58:04;;;;;;;31.52;25.58;;;;;;;13.50;94.20;101297.47;5095652;28;20028;-43
2022/09/04 02:00:37;;;;;;;28.63;24.38;;;;;;;13.60;94.09;101302.88;5096258;28;20467;-45
2022/09/04 02:03:27;;;;;;;27.70;23.88;;;;;;;13.58;92.87;101310.63;5096439;28;20032;-45
2022/09/04 02:06:00;;;;;;;28.88;24.08;;;;;;;13.62;93.85;101314.13;5095664;28;20383;-48
2022/09/04 02:08:53;;;;;;;28.83;24.27;;;;;;;13.63;93.93;101319.38;5096236;28;20039;-44
2022/09/04 02:11:25;;;;;;;26.50;23.55;;;;;;;13.66;93.87;101318.59;5096020;28;20036;-46
2022/09/04 02:14:09;;;;;;;25.83;22.95;;;;;;;13.55;93.34;101320.03;5095435;28;20042;-43
2022/09/04 02:17:09;;;;;;;26.15;23.35;;;;;;;13.65;93.71;101327.19;5096147;28;20024;-44
2022/09/04 02:19:54;;;;;;;28.63;24.95;;;;;;;13.66;94.45;101332.38;5095419;28;20028;-45
2022/09/04 02:22:32;;;;;;;27.27;24.38;;;;;;;13.64;94.29;101330.59;5095933;28;20032;-43
2022/09/04 02:25:20;;;;;;;26.02;23.23;;;;;;;13.60;93.91;101328.78;5096065;28;20028;-45
2022/09/04 02:27:58;;;;;;;24.55;21.95;;;;;;;13.50;93.65;101336.31;5095037;28;20090;-45
2022/09/04 02:30:25;;;;;;;28.77;23.25;;;;;;;13.40;92.86;101325.69;5095740;28;20116;-45
2022/09/04 02:33:21;;;;;;;25.00;22.35;;;;;;;13.51;92.51;101339.78;5095290;28;20032;-45
2022/09/04 02:36:15;;;;;;;25.13;22.45;;;;;;;13.28;93.26;101341.75;5095826;28;20059;-45
2022/09/04 02:39:11;;;;;;;25.73;22.35;;;;;;;13.35;93.67;101335.91;5091437;28;20070;-46
2022/09/04 02:42:16;;;;;;;28.67;23.60;;;;;;;13.32;94.24;101334.09;5094666;28;20052;-45
2022/09/04 02:45:04;;;;;;;28.70;25.60;;;;;;;13.31;96.14;101331.44;5095745;28;20039;-44
2022/09/04 02:48:00;;;;;;;26.92;23.88;;;;;;;13.39;95.07;101335.16;5094809;28;20043;-43
2022/09/04 02:50:52;;;;;;;29.15;26.05;;;;;;;13.49;96.27;101337.16;5095358;28;20024;-48
2022/09/04 02:53:24;;;;;;;25.95;23.17;;;;;;;13.44;94.96;101348.22;5095435;28;20059;-46
2022/09/04 02:56:10;;;;;;;25.08;22.42;;;;;;;13.39;94.94;101345.53;5094584;28;20371;-43
2022/09/04 02:59:13;;;;;;;27.88;24.83;;;;;;;13.48;96.94;101353.53;5094101;28;20176;-47
2022/09/04 03:02:01;;;;;;;28.70;25.05;;;;;;;13.47;97.99;101358.66;5094453;28;20082;-48
2022/09/04 03:04:34;;;;;;;;;;;;;;;13.58;93.68;101353.75;5095563;28;20024;-45
2022/09/04 03:07:09;;;;;;;25.38;22.77;;;;;;;13.62;97.94;101358.16;5095210;28;19908;-44
2022/09/04 03:10:07;;;;;;;25.92;23.15;;;;;;;13.60;96.74;101359.84;5094333;28;20030;-43
2022/09/04 03:12:47;;;;;;;24.88;22.00;;;;;;;13.61;96.69;101366.78;5094409;28;20089;-43
2022/09/04 03:15:29;;;;;;;27.77;22.10;;;;;;;13.64;98.45;101362.53;5094110;28;20028;-44
2022/09/04 03:18:04;;;;;;;25.15;22.48;;;;;;;13.69;99.52;101361.81;5095021;28;20043;-47
2022/09/04 03:20:43;;;;;;;24.63;22.02;;;;;;;13.73;99.96;101364.50;5094982;28;20028;-44
2022/09/04 03:23:43;;;;;;;28.00;21.17;;;;;;;13.71;97.94;101361.00;5093879;28;20493;-44
2022/09/04 03:26:34;;;;;;;23.00;20.52;;;;;;;13.58;97.73;101367.59;5094572;28;20024;-47
2022/09/04 03:29:15;;;;;;;24.58;20.42;;;;;;;13.61;98.77;101359.03;5094256;28;20044;-47
2022/09/04 03:32:01;;;;;;;23.52;20.13;;;;;;;13.54;97.74;101364.88;5094350;28;20429;-47
2022/09/04 03:35:08;;;;;;;26.67;21.55;;;;;;;13.65;99.97;101363.44;5094296;28;20024;-46
2022/09/04 03:37:51;;;;;;;27.30;22.10;;;;;;;13.70;100.00;101366.13;5011467;28;20412;-44
2022/09/04 03:40:20;;;;;;;22.77;20.35;;;;;;;13.71;100.00;101363.59;5012241;28;20481;-46
2022/09/04 03:43:05;;;;;;;20.60;18.50;;;;;;;13.68;99.96;101373.00;5063569;28;20054;-45
2022/09/04 03:45:57;;;;;;;21.33;18.73;;;;;;;13.55;99.88;101367.50;5093752;28;20521;-44
2022/09/04 03:49:04;;;;;;;19.88;17.75;;;;;;;13.49;97.82;101365.63;5094041;28;20129;-45
2022/09/04 03:51:39;;;;;;;;;;;;;;;13.58;94.86;101372.78;5070968;28;20043;-47
2022/09/04 03:54:42;;;;;;;20.42;18.20;;;;;;;13.33;97.08;101366.03;5094218;28;19935;-49
2022/09/04 03:57:19;;;;;;;23.65;19.30;;;;;;;13.17;98.92;101375.97;5062954;28;20036;-45
2022/09/04 04:00:18;;;;;;;25.25;19.88;;;;;;;13.16;99.14;101374.22;5094415;28;20051;-48
2022/09/04 04:02:43;;;;;;;22.42;20.13;;;;;;;13.04;99.33;101376.47;5094178;28;20020;-43
2022/09/04 04:05:52;;;;;;;23.37;19.43;;;;;;;13.10;99.54;101379.22;5093003;28;20022;-45
2022/09/04 04:08:35;;;;;;;22.88;20.10;;;;;;;12.95;99.89;101383.97;5011640;28;20029;-45
2022/09/04 04:11:23;;;;;;;22.27;19.50;;;;;;;12.82;99.32;101381.03;5090657;28;20040;-45
2022/09/04 04:13:58;;;;;;;21.85;19.65;;;;;;;12.78;100.00;101384.38;5093917;28;20035;-48
2022/09/04 04:16:51;;;;;;;23.83;20.85;;;;;;;12.80;100.00;101387.88;5093751;28;20024;-45
2022/09/04 04:19:35;;;;;;;22.05;19.77;;;;;;;12.82;100.00;101399.16;5092822;28;20028;-45
2022/09/04 04:22:38;;;;;;;23.50;20.60;;;;;;;12.84;100.00;101394.00;5093658;28;20042;-43
2022/09/04 04:25:28;;;;;;;23.67;21.17;;;;;;;12.83;100.00;101400.91;5093457;28;20486;-45
2022/09/04 04:28:16;;;;;;;22.15;19.85;;;;;;;12.82;100.00;101398.25;5079465;28;20066;-45
2022/09/04 04:30:48;;;;;;;23.08;20.27;;;;;;;12.76;100.00;101398.97;5093434;28;20035;-45
2022/09/04 04:33:22;;;;;;;24.23;21.80;;;;;;;12.83;100.00;101403.50;5092789;28;20114;-48
2022/09/04 04:36:00;;;;;;;23.38;20.50;;;;;;;12.81;100.00;101407.72;5093621;28;20031;-45
2022/09/04 04:38:52;;;;;;;25.80;22.83;;;;;;;13.00;100.00;101413.44;5093420;28;20024;-49
2022/09/04 04:42:03;;;;;;;24.67;22.00;;;;;;;13.07;100.00;101417.09;5092068;28;20126;-46
2022/09/04 04:48:02;;;;;;;21.58;19.38;;;;;;;13.04;100.00;101423.06;5092795;28;20081;-44
2022/09/04 04:50:52;;;;;;;20.70;18.50;;;;;;;13.05;100.00;101414.44;5093105;28;20028;-44
2022/09/04 04:53:31;;;;;;;22.02;19.65;;;;;;;13.09;100.00;101424.06;5092962;28;20115;-47
2022/09/04 04:56:15;;;;;;;21.00;18.77;;;;;;;13.01;100.00;101413.50;5093444;28;20024;-45
2022/09/04 04:59:00;;;;;;;20.05;17.92;;;;;;;12.97;100.00;101418.53;5093210;28;20034;-47
2022/09/04 05:01:39;;;;;;;22.08;18.60;;;;;;;12.81;100.00;101424.97;5092290;28;20035;-45
2022/09/04 05:04:19;;;;;;;18.80;16.80;;;;;;;12.83;100.00;101425.88;5092937;28;20042;-48
2022/09/04 05:07:05;;;;;;;22.17;19.85;;;;;;;12.91;100.00;101427.00;5093134;28;20051;-47
2022/09/04 05:09:47;;;;;;;20.27;17.60;;;;;;;12.90;100.00;101429.50;5092070;28;20055;-47
2022/09/04 05:12:55;;;;;;;23.27;18.88;;;;;;;12.94;100.00;101433.97;5092804;28;20463;-47
2022/09/04 05:15:44;;;;;;;20.17;17.98;;;;;;;12.97;100.00;101439.22;5046958;28;20503;-48
2022/09/04 05:18:19;;;;;;;21.55;18.67;;;;;;;13.02;100.00;101448.88;5092876;28;20028;-45
2022/09/04 05:20:58;;;;;;;22.80;18.98;;;;;;;13.02;100.00;101442.81;5092908;28;20024;-43
2022/09/04 05:23:38;;;;;;;21.10;18.58;;;;;;;13.01;100.00;101443.66;5095555;28;20384;-44
2022/09/04 05:26:15;;;;;;;21.40;18.33;;;;;;;13.11;100.00;101457.75;5096978;28;20024;-43
2022/09/04 05:28:41;;;;;;;;;;;;;;;13.17;100.00;101453.63;5096715;28;20383;-44
2022/09/04 05:31:15;;;;;;;20.90;18.63;;;;;;;13.19;100.00;101461.41;5096546;28;19998;-43
2022/09/04 05:33:52;;;;;;;21.70;18.63;;;;;;;13.13;100.00;101464.72;5096810;28;20464;-43
2022/09/04 05:36:26;;;;;;;20.55;18.35;;;;;;;13.17;100.00;101469.16;5096045;28;20016;-45
2022/09/04 05:39:04;;;;;;;20.58;18.40;;;;;;;13.22;100.00;101473.56;5097021;28;20050;-44
2022/09/04 05:41:40;;;;;;;24.90;19.02;;;;;;;13.27;100.00;101479.75;5096392;28;20048;-42
2022/09/04 05:44:17;;;;;;;24.15;19.88;;;;;;;13.30;100.00;101480.72;5096040;28;20028;-42
2022/09/04 05:47:02;;;;;;;22.52;19.92;;;;;;;13.40;100.00;101484.50;5096840;28;20047;-47
2022/09/04 05:49:45;;;;;;;22.52;19.33;;;;;;;13.49;100.00;101492.53;5096455;28;20031;-48
2022/09/04 05:52:26;;;;;;;26.38;21.13;;;;;;;13.64;100.00;101491.19;5096672;28;20165;-42
2022/09/04 05:55:07;;;;;;;25.30;22.17;;;;;;;13.71;100.00;101493.13;5096668;28;20028;-46
2022/09/04 05:58:22;;;;;;;31.02;24.48;;;;;;;13.92;100.00;101504.91;5095545;28;20107;-44
2022/09/04 06:01:25;;;;;;;31.17;27.48;;;;;;;14.13;100.00;101508.03;5051385;28;20054;-44
2022/09/04 06:04:20;;;;;;;35.67;28.88;;;;;;;14.36;100.00;101515.50;5095657;28;20067;-48
2022/09/04 06:07:04;;;;;;;33.97;29.45;;;;;;;14.53;100.00;101512.47;5096489;28;20028;-43
2022/09/04 06:09:55;;;;;;;31.98;27.40;;;;;;;14.70;100.00;101513.75;5096196;28;20032;-43
2022/09/04 06:12:35;;;;;;;31.23;27.77;;;;;;;14.84;100.00;101510.63;5095183;28;20040;-43
2022/09/04 06:15:38;;;;;;;30.48;27.25;;;;;;;14.96;100.00;101516.06;5096211;28;20028;-44
2022/09/04 06:18:09;;;;;;;33.47;28.70;;;;;;;15.09;100.00;101512.91;5095257;28;20038;-43
2022/09/04 06:21:38;;;;;;;32.33;27.90;;;;;;;15.19;100.00;101518.28;5095969;28;20142;-43
2022/09/04 06:24:22;;;;;;;30.13;26.92;;;;;;;15.37;100.00;101508.28;5069059;28;20564;-43
2022/09/04 06:27:18;;;;;;;28.45;25.35;;;;;;;15.50;100.00;101521.53;5095229;28;20027;-47
2022/09/04 06:29:49;;;;;;;29.65;26.42;;;;;;;15.62;100.00;101516.56;5095965;28;20032;-48
2022/09/04 06:32:24;;;;;;;27.23;24.27;;;;;;;15.74;100.00;101522.00;5094737;28;20623;-49
2022/09/04 06:35:15;;;;;;;24.38;21.83;;;;;;;15.87;100.00;101519.66;5095778;28;20365;-47
2022/09/04 06:38:20;;;;;;;24.30;21.70;;;;;;;15.96;100.00;101528.50;5095594;28;20028;-43
2022/09/04 06:40:51;;;;;;;25.95;22.05;;;;;;;16.10;100.00;101526.16;5094677;28;20530;-47
2022/09/04 06:43:42;;;;;;;22.73;20.17;;;;;;;16.20;100.00;101531.50;5095251;28;20475;-47
2022/09/04 06:46:30;;;;;;;20.75;18.65;;;;;;;16.31;100.00;101529.97;5058225;28;20887;-46
2022/09/04 06:49:13;;;;;;;20.05;17.65;;;;;;;16.49;100.00;101534.63;5095656;28;20051;-48
2022/09/04 06:52:06;;;;;;;20.27;18.13;;;;;;;16.64;99.85;101539.16;5095380;28;20085;-48
2022/09/04 06:55:03;;;;;;;21.67;18.40;;;;;;;16.78;98.78;101535.06;5094438;28;20505;-48
2022/09/04 06:57:40;;;;;;;19.42;16.48;;;;;;;16.89;97.92;101534.34;5095291;28;20472;-48
2022/09/04 07:00:10;;;;;;;20.77;16.85;;;;;;;17.00;97.54;101527.56;5094393;28;20027;-48
2022/09/04 07:02:54;;;;;;;18.55;16.65;;;;;;;17.10;96.80;101526.00;5095081;28;20032;-45
2022/09/04 07:05:28;;;;;;;20.17;15.77;;;;;;;17.30;96.30;101531.47;5095057;28;20089;-43
2022/09/04 07:08:24;;;;;;;19.15;15.85;;;;;;;17.38;95.17;101532.44;5094439;28;20051;-43
2022/09/04 07:11:11;;;;;;;19.05;16.10;;;;;;;17.48;94.69;101538.66;5094981;28;20063;-46
2022/09/04 07:13:48;;;;;;;20.25;15.88;;;;;;;17.58;94.03;101544.81;5094812;28;20479;-43
2022/09/04 07:16:55;;;;;;;17.90;15.25;;;;;;;17.70;93.45;101544.97;5094186;28;20038;-43
2022/09/04 07:19:47;;;;;;;17.60;15.70;;;;;;;17.90;92.91;101547.78;5056425;28;20506;-44
2022/09/04 07:22:28;;;;;;;16.80;15.00;;;;;;;18.08;92.03;101547.13;5094124;28;20028;-45
2022/09/04 07:25:01;;;;;;;17.98;14.75;;;;;;;18.32;91.35;101550.84;5094929;28;20142;-43
2022/09/04 07:28:24;;;;;;;18.48;14.55;;;;;;;18.39;90.69;101551.75;5094720;28;20024;-47
2022/09/04 07:31:04;;;;;;;17.50;15.55;;;;;;;18.54;88.87;101548.38;5012529;28;20034;-44
2022/09/04 07:33:42;;;;;;;20.98;15.38;;;;;;;18.73;88.74;101560.75;5012529;28;20030;-45
2022/09/04 07:36:07;;;;;;;;;;;;;;;18.85;89.39;101561.66;5064756;28;20376;-43
2022/09/04 07:38:55;;;;;;;19.80;14.90;;;;;;;19.04;87.71;101563.59;5094567;28;20480;-44
2022/09/04 07:41:51;;;;;;;18.85;14.82;;;;;;;19.24;86.72;101563.69;5094199;28;20097;-43
2022/09/04 07:44:28;;;;;;;17.17;14.32;;;;;;;19.40;85.70;101568.97;5092799;28;20032;-43
2022/09/04 07:47:12;;;;;;;17.38;14.07;;;;;;;19.55;84.33;101578.66;5094584;28;20049;-47
2022/09/04 07:49:52;;;;;;;18.98;14.95;;;;;;;19.55;83.45;101576.03;5093569;28;20504;-49
2022/09/04 07:52:27;;;;;;;18.13;14.68;;;;;;;19.74;83.37;101570.00;5094032;28;20030;-46
2022/09/04 07:55:14;;;;;;;19.30;14.93;;;;;;;19.93;83.49;101575.28;5094186;28;20052;-44
2022/09/04 07:57:56;;;;;;;17.80;14.27;;;;;;;20.08;81.78;101574.47;5093466;28;20067;-43
2022/09/04 08:00:21;;;;;;;16.42;13.82;;;;;;;20.28;80.86;101587.56;5093914;28;20016;-44
2022/09/04 08:03:05;;;;;;;17.85;14.20;;;;;;;20.36;80.41;101584.94;5105621;28;20020;-43
2022/09/04 08:05:39;;;;;;;16.42;13.55;;;;;;;20.35;79.85;101588.47;5093373;28;20070;-48
2022/09/04 08:08:20;;;;;;;17.73;13.98;;;;;;;20.44;79.99;101584.94;5093910;28;20031;-49
2022/09/04 08:11:04;;;;;;;18.73;14.45;;;;;;;20.50;79.08;101587.56;5093166;28;20032;-45
2022/09/04 08:13:53;;;;;;;17.80;13.85;;;;;;;20.54;78.77;101595.44;5093674;28;20023;-47
2022/09/04 08:16:38;;;;;;;17.67;14.15;;;;;;;20.55;78.43;101594.59;5093822;28;20058;-48
2022/09/04 08:19:39;;;;;;;16.35;13.55;;;;;;;20.56;79.22;101590.22;5092990;28;20024;-44
2022/09/04 08:22:10;;;;;;;17.33;13.90;;;;;;;20.73;77.89;101595.47;5094043;28;20065;-47
2022/09/04 08:24:48;;;;;;;18.85;13.80;;;;;;;20.82;76.99;101594.59;5093061;28;20089;-48
2022/09/04 08:27:50;;;;;;;22.00;13.60;;;;;;;21.01;77.05;101600.69;5093629;28;20469;-45
2022/09/04 08:30:19;;;;;;;15.05;13.02;;;;;;;21.20;75.28;101601.50;5011310;28;20048;-47
2022/09/04 08:33:22;;;;;;;17.40;13.60;;;;;;;21.37;75.20;101609.34;5091032;28;20036;-45
2022/09/04 08:36:09;;;;;;;15.68;13.63;;;;;;;21.51;74.60;101604.91;5113961;28;20102;-48
2022/09/04 08:38:44;;;;;;;16.85;13.23;;;;;;;21.60;73.96;101616.25;5113050;28;20027;-44
2022/09/04 08:41:25;;;;;;;16.25;13.38;;;;;;;21.79;73.24;101614.44;5113554;28;20040;-45
2022/09/04 08:44:05;;;;;;;16.83;13.90;;;;;;;21.96;72.32;101620.47;5113705;28;20024;-43
2022/09/04 08:46:51;;;;;;;17.55;12.73;;;;;;;22.09;71.61;101615.13;5112856;28;20024;-43
2022/09/04 08:49:35;;;;;;;19.45;13.23;;;;;;;22.24;71.07;101615.03;5113613;28;20032;-45
2022/09/04 08:52:25;;;;;;;17.30;12.48;;;;;;;22.42;70.85;101628.97;5113540;28;20027;-44
2022/09/04 08:55:10;;;;;;;15.75;13.25;;;;;;;22.39;68.91;101615.84;5112892;28;20019;-44
2022/09/04 08:58:06;;;;;;;15.82;12.90;;;;;;;22.52;70.05;101630.66;5112486;28;20494;-46
2022/09/04 09:01:22;;;;;;;16.53;12.50;;;;;;;22.72;70.05;101629.59;5112737;28;20031;-48
2022/09/04 09:03:53;;;;;;;15.73;12.00;;;;;;;22.89;68.08;101624.19;5093096;28;20036;-46
2022/09/04 09:06:48;;;;;;;13.77;11.00;;;;;;;23.13;67.64;101633.59;5092861;28;20059;-43
2022/09/04 09:09:35;;;;;;;15.80;12.15;;;;;;;23.40;66.33;101635.09;5092824;28;20425;-46
2022/09/04 09:12:36;;;;;;;15.73;11.38;;;;;;;23.51;66.26;101630.59;5092708;28;20028;-43
2022/09/04 09:15:42;;;;;;;14.13;11.23;;;;;;;23.74;65.24;101631.19;5078506;28;20028;-44
2022/09/04 09:18:07;;;;;;;14.43;11.10;;;;;;;24.00;64.18;101625.59;5092687;28;20039;-47
2022/09/04 09:20:52;;;;;;;14.90;10.38;;;;;;;24.35;63.37;101633.88;5092987;28;20032;-48
2022/09/04 09:23:35;;;;;;;15.32;11.63;;;;;;;24.48;62.16;101619.63;5092802;28;20024;-43
2022/09/04 09:26:27;;;;;;;11.40;9.05;;;;;;;24.78;62.14;101627.94;5092575;28;20024;-48
2022/09/04 09:29:15;;;;;;;15.07;9.88;;;;;;;24.71;61.64;101618.38;5092145;28;20028;-44
2022/09/04 09:32:01;;;;;;;10.75;7.78;;;;;;;24.87;60.19;101622.50;5092558;28;20434;-43
2022/09/04 09:34:52;;;;;;;10.70;8.50;;;;;;;25.13;58.64;101618.50;5092723;28;20024;-50
2022/09/04 09:37:52;;;;;;;13.73;8.32;;;;;;;25.24;57.99;101611.28;5092687;28;20036;-46
2022/09/04 09:40:59;;;;;;;11.88;7.97;;;;;;;25.51;57.77;101613.41;5092502;28;20032;-48
2022/09/04 09:43:34;;;;;;;11.63;6.78;;;;;;;25.69;56.58;101617.44;5103651;28;20402;-46
2022/09/04 09:46:35;;;;;;;10.35;5.45;;;;;;;26.15;54.57;101616.44;5113318;28;20028;-45
2022/09/04 09:49:22;;;;;;;8.18;5.18;;;;;;;26.37;54.56;101615.91;5112364;28;20107;-44
2022/09/04 09:52:23;;;;;;;8.80;5.35;;;;;;;26.52;52.58;101626.13;5112847;28;20375;-47
2022/09/04 09:55:10;;;;;;;8.80;5.03;;;;;;;27.32;52.35;101622.28;5113103;28;20024;-47
2022/09/04 09:58:12;;;;;;;6.32;3.83;;;;;;;27.91;50.59;101618.78;5112096;28;20106;-46
2022/09/04 10:00:57;;;;;;;5.97;3.50;;;;;;;27.99;47.40;101614.13;5112965;28;20024;-43
2022/09/04 10:04:10;;;;;;;6.78;2.97;;;;;;;28.29;47.61;101623.81;5112010;28;20027;-43
2022/09/04 10:06:59;;;;;;;6.05;3.22;;;;;;;28.44;45.39;101620.66;5093892;28;20110;-46
2022/09/04 10:09:46;;;;;;;9.77;3.30;;;;;;;28.82;43.94;101625.59;5116176;28;20375;-44
2022/09/04 10:12:32;;;;;;;6.25;3.70;;;;;;;28.26;46.07;101622.13;5114369;28;20120;-47
2022/09/04 10:15:21;;;;;;;6.53;3.28;;;;;;;28.19;46.15;101621.47;5096192;28;20028;-45
2022/09/04 10:18:06;;;;;;;7.03;3.55;;;;;;;27.64;46.83;101618.72;5095508;28;20028;-44
2022/09/04 10:21:09;;;;;;;5.88;3.80;;;;;;;27.19;48.19;101627.94;5095951;28;20502;-44
2022/09/04 10:24:18;;;;;;;8.02;4.10;;;;;;;27.11;48.83;101625.50;5096086;28;20038;-43
2022/09/04 10:27:02;;;;;;;6.50;3.53;;;;;;;26.90;49.38;101621.63;5096017;28;20043;-44
2022/09/04 10:29:52;;;;;;;5.43;3.90;;;;;;;27.26;49.16;101625.97;5095802;28;20024;-46
2022/09/04 10:33:03;;;;;;;6.10;4.20;;;;;;;27.67;48.54;101623.94;5094794;28;20032;-43
2022/09/04 10:35:35;;;;;;;7.00;4.05;;;;;;;27.30;48.29;101629.41;5033552;28;20025;-49
2022/09/04 10:38:02;;;;;;;7.32;4.78;;;;;;;26.87;48.93;101634.94;5039455;28;20024;-43
2022/09/04 10:40:55;;;;;;;6.93;4.45;;;;;;;27.51;48.38;101628.78;5076602;28;20510;-45
2022/09/04 10:43:54;;;;;;;7.07;4.28;;;;;;;28.58;46.38;101633.47;5095413;28;20078;-46
2022/09/04 10:46:50;;;;;;;6.25;3.40;;;;;;;28.28;44.74;101630.91;5094826;28;20027;-48
2022/09/04 10:49:41;;;;;;;7.47;3.25;;;;;;;28.16;44.45;101632.19;5111708;28;20063;-48
2022/09/04 10:52:42;;;;;;;4.35;2.45;;;;;;;29.15;43.62;101623.53;5115649;27;20484;-44
2022/09/04 10:55:31;;;;;;;4.50;2.15;;;;;;;29.34;41.65;101629.09;5115745;27;20102;-44
2022/09/04 10:58:14;;;;;;;3.75;2.42;;;;;;;29.13;41.92;101620.09;5113953;28;20027;-45
2022/09/04 11:00:58;;;;;;;5.47;2.45;;;;;;;28.44;40.49;101627.75;5114785;28;20106;-45
2022/09/04 11:03:44;;;;;;;5.90;2.40;;;;;;;27.84;42.90;101630.50;5115468;28;20035;-44
2022/09/04 11:06:48;;;;;;;4.57;2.30;;;;;;;27.80;44.08;101628.84;5115411;28;20367;-46
2022/09/04 11:09:16;;;;;;;4.03;2.10;;;;;;;28.96;41.14;101626.00;5099989;28;20107;-46
2022/09/04 11:12:16;;;;;;;4.03;2.45;;;;;;;29.48;41.21;101617.94;5095152;28;20028;-44
2022/09/04 11:15:00;;;;;;;3.58;2.33;;;;;;;29.59;39.32;101616.69;5094324;28;20038;-44
2022/09/04 11:17:57;;;;;;;2.90;1.95;;;;;;;29.31;37.81;101620.34;5095141;28;20062;-44
2022/09/04 11:20:50;;;;;;;6.40;2.13;;;;;;;28.46;39.40;101626.78;5112695;28;20035;-48
2022/09/04 11:23:54;;;;;;;3.80;2.15;;;;;;;28.30;40.76;101622.91;5115009;28;20034;-49
2022/09/04 11:26:46;;;;;;;4.13;2.08;;;;;;;29.04;38.70;101620.44;5115149;28;20043;-48
2022/09/04 11:29:46;;;;;;;5.50;2.65;;;;;;;29.84;38.16;101627.22;5100960;28;20468;-44
2022/09/04 11:32:34;;;;;;;3.97;1.92;;;;;;;30.03;35.70;101630.03;5073216;28;20547;-46
2022/09/04 11:35:09;;;;;;;3.60;2.05;;;;;;;29.77;35.34;101629.22;5093889;28;20410;-46
2022/09/04 11:37:43;;;;;;;6.53;2.42;;;;;;;28.83;36.82;101625.56;5094332;28;20138;-42
2022/09/04 11:40:23;;;;;;;5.30;2.00;;;;;;;28.22;38.26;101626.66;5113904;28;20111;-44
2022/09/04 11:42:56;;;;;;;4.25;2.13;;;;;;;27.73;40.02;101628.16;5113897;28;20035;-45
2022/09/04 11:45:47;;;;;;;3.47;2.10;;;;;;;27.69;40.38;101626.53;5114684;28;20397;-44
2022/09/04 11:48:36;;;;;;;5.10;2.45;;;;;;;28.41;39.61;101626.06;5111004;28;20106;-43
2022/09/04 11:51:38;;;;;;;5.35;2.30;;;;;;;29.52;38.15;101622.22;5094222;28;20038;-47
2022/09/04 11:54:32;;;;;;;3.10;2.20;;;;;;;29.83;34.72;101625.50;5094170;28;20085;-44
2022/09/04 11:57:25;;;;;;;3.58;2.20;;;;;;;29.76;33.40;101624.88;5093456;28;20387;-47
2022/09/04 12:00:11;;;;;;;3.90;2.00;;;;;;;29.58;35.61;101625.56;5110885;28;20047;-45
2022/09/04 12:03:07;;;;;;;7.38;2.20;;;;;;;29.74;34.50;101621.41;5113686;28;20031;-45
2022/09/04 12:06:01;;;;;;;4.97;2.25;;;;;;;30.05;34.48;101622.88;5114437;28;20034;-44
2022/09/04 12:09:10;;;;;;;8.55;2.70;;;;;;;30.51;34.01;101623.66;5112202;28;20077;-45
2022/09/04 12:11:48;;;;;;;7.05;2.78;;;;;;;30.80;32.48;101629.53;5094853;28;20039;-46
2022/09/04 12:14:35;;;;;;;5.28;2.70;;;;;;;30.90;33.60;101627.34;5114212;28;20063;-44
2022/09/04 12:17:48;;;;;;;6.93;2.80;;;;;;;30.28;34.38;101632.56;5113406;28;20107;-42
2022/09/04 12:20:35;;;;;;;10.18;3.65;;;;;;;29.10;34.76;101640.56;5033447;28;20036;-47
2022/09/04 12:23:25;;;;;;;4.80;2.80;;;;;;;28.74;35.79;101639.13;5093648;28;20070;-45
2022/09/04 12:26:20;;;;;;;4.95;2.60;;;;;;;28.79;35.57;101636.34;5093169;28;20023;-44
2022/09/04 12:29:24;;;;;;;7.70;2.77;;;;;;;29.34;35.69;101637.06;5098422;28;20032;-45
2022/09/04 12:32:28;;;;;;;4.57;2.55;;;;;;;29.84;35.08;101636.06;5100990;28;20032;-44
2022/09/04 12:35:30;;;;;;;6.00;2.50;;;;;;;31.14;31.80;101638.75;5113287;28;20032;-44
2022/09/04 12:38:16;;;;;;;9.40;3.72;;;;;;;31.02;30.33;101633.91;5112995;28;20467;-46
2022/09/04 12:41:00;;;;;;;;;;;;;;;31.51;32.27;101639.72;5094006;28;20028;-46
2022/09/04 12:43:33;;;;;;;6.47;2.80;;;;;;;30.86;31.20;101645.25;5093438;28;19916;-47